sensor_id;sensor_type;location;lat;lon;timestamp;P1;durP1;ratioP1;P2;durP2;ratioP2
37529;SDS011;23374;52.758;6.872;2023-07-30T00:01:28;5.47;;;2.97;;
37529;SDS011;23374;52.758;6.872;2023-07-30T00:03:48;5.27;;;2.73;;
37529;SDS011;23374;52.758;6.872;2023-07-30T00:06:08;10.57;;;3.20;;
37529;SDS011;23374;52.758;6.872;2023-07-30T00:08:29;7.97;;;3.20;;
37529;SDS011;23374;52.758;6.872;2023-07-30T00:10:50;7.37;;;3.00;;
37529;SDS011;23374;52.758;6.872;2023-07-30T00:13:10;9.13;;;3.40;;
37529;SDS011;23374;52.758;6.872;2023-07-30T00:15:30;8.97;;;3.20;;
37529;SDS011;23374;52.758;6.872;2023-07-30T00:17:51;5.93;;;2.83;;
37529;SDS011;23374;52.758;6.872;2023-07-30T00:20:12;10.87;;;3.57;;
37529;SDS011;23374;52.758;6.872;2023-07-30T00:22:32;7.50;;;3.00;;
37529;SDS011;23374;52.758;6.872;2023-07-30T00:24:52;14.10;;;3.37;;
37529;SDS011;23374;52.758;6.872;2023-07-30T00:27:14;9.23;;;3.30;;
37529;SDS011;23374;52.758;6.872;2023-07-30T00:29:34;7.43;;;3.63;;
37529;SDS011;23374;52.758;6.872;2023-07-30T00:31:54;8.50;;;3.40;;
37529;SDS011;23374;52.758;6.872;2023-07-30T00:34:14;8.13;;;3.00;;
37529;SDS011;23374;52.758;6.872;2023-07-30T00:36:34;6.70;;;2.27;;
37529;SDS011;23374;52.758;6.872;2023-07-30T00:38:55;7.97;;;2.20;;
37529;SDS011;23374;52.758;6.872;2023-07-30T00:41:15;7.83;;;2.40;;
37529;SDS011;23374;52.758;6.872;2023-07-30T00:43:35;8.23;;;2.20;;
37529;SDS011;23374;52.758;6.872;2023-07-30T00:45:56;7.97;;;2.63;;
37529;SDS011;23374;52.758;6.872;2023-07-30T00:48:16;4.97;;;2.20;;
37529;SDS011;23374;52.758;6.872;2023-07-30T00:50:36;5.60;;;2.50;;
37529;SDS011;23374;52.758;6.872;2023-07-30T00:52:58;14.73;;;2.70;;
37529;SDS011;23374;52.758;6.872;2023-07-30T00:55:18;4.13;;;2.13;;
37529;SDS011;23374;52.758;6.872;2023-07-30T00:57:39;6.93;;;2.63;;
37529;SDS011;23374;52.758;6.872;2023-07-30T01:00:04;5.17;;;2.33;;
37529;SDS011;23374;52.758;6.872;2023-07-30T01:02:28;6.47;;;2.50;;
37529;SDS011;23374;52.758;6.872;2023-07-30T01:04:49;11.27;;;2.70;;
37529;SDS011;23374;52.758;6.872;2023-07-30T01:07:11;13.30;;;2.90;;
37529;SDS011;23374;52.758;6.872;2023-07-30T01:09:32;7.97;;;2.83;;
37529;SDS011;23374;52.758;6.872;2023-07-30T01:11:54;8.90;;;2.53;;
37529;SDS011;23374;52.758;6.872;2023-07-30T01:14:15;5.90;;;2.30;;
37529;SDS011;23374;52.758;6.872;2023-07-30T01:16:36;7.23;;;2.60;;
37529;SDS011;23374;52.758;6.872;2023-07-30T01:18:57;8.63;;;2.50;;
37529;SDS011;23374;52.758;6.872;2023-07-30T01:21:18;5.07;;;2.53;;
37529;SDS011;23374;52.758;6.872;2023-07-30T01:23:39;9.20;;;2.57;;
37529;SDS011;23374;52.758;6.872;2023-07-30T01:26:10;6.90;;;2.37;;
37529;SDS011;23374;52.758;6.872;2023-07-30T01:28:41;6.37;;;2.63;;
37529;SDS011;23374;52.758;6.872;2023-07-30T01:31:05;10.93;;;3.00;;
37529;SDS011;23374;52.758;6.872;2023-07-30T01:33:28;9.57;;;2.40;;
37529;SDS011;23374;52.758;6.872;2023-07-30T01:35:49;7.93;;;2.43;;
37529;SDS011;23374;52.758;6.872;2023-07-30T01:38:10;6.33;;;2.20;;
37529;SDS011;23374;52.758;6.872;2023-07-30T01:40:32;7.23;;;2.33;;
37529;SDS011;23374;52.758;6.872;2023-07-30T01:42:53;3.73;;;2.40;;
37529;SDS011;23374;52.758;6.872;2023-07-30T01:45:13;6.27;;;2.30;;
37529;SDS011;23374;52.758;6.872;2023-07-30T01:47:34;10.63;;;2.10;;
37529;SDS011;23374;52.758;6.872;2023-07-30T01:49:54;6.93;;;2.00;;
37529;SDS011;23374;52.758;6.872;2023-07-30T01:52:15;6.93;;;2.10;;
37529;SDS011;23374;52.758;6.872;2023-07-30T01:54:35;8.27;;;2.27;;
37529;SDS011;23374;52.758;6.872;2023-07-30T01:56:55;7.40;;;2.57;;
37529;SDS011;23374;52.758;6.872;2023-07-30T01:59:16;4.97;;;2.33;;
37529;SDS011;23374;52.758;6.872;2023-07-30T02:01:36;7.53;;;2.33;;
37529;SDS011;23374;52.758;6.872;2023-07-30T02:03:56;10.00;;;2.27;;
37529;SDS011;23374;52.758;6.872;2023-07-30T02:06:16;6.77;;;2.10;;
37529;SDS011;23374;52.758;6.872;2023-07-30T02:08:37;9.83;;;1.70;;
37529;SDS011;23374;52.758;6.872;2023-07-30T02:10:58;6.57;;;2.07;;
37529;SDS011;23374;52.758;6.872;2023-07-30T02:13:19;11.83;;;2.57;;
37529;SDS011;23374;52.758;6.872;2023-07-30T02:15:42;10.43;;;2.07;;
37529;SDS011;23374;52.758;6.872;2023-07-30T02:18:03;3.03;;;1.63;;
37529;SDS011;23374;52.758;6.872;2023-07-30T02:20:23;9.47;;;2.83;;
37529;SDS011;23374;52.758;6.872;2023-07-30T02:22:43;6.40;;;1.57;;
37529;SDS011;23374;52.758;6.872;2023-07-30T02:25:05;11.50;;;2.40;;
37529;SDS011;23374;52.758;6.872;2023-07-30T02:27:26;7.57;;;1.70;;
37529;SDS011;23374;52.758;6.872;2023-07-30T02:29:46;7.97;;;2.53;;
37529;SDS011;23374;52.758;6.872;2023-07-30T02:32:07;10.23;;;1.90;;
37529;SDS011;23374;52.758;6.872;2023-07-30T02:34:27;9.50;;;2.00;;
37529;SDS011;23374;52.758;6.872;2023-07-30T02:36:48;8.57;;;2.37;;
37529;SDS011;23374;52.758;6.872;2023-07-30T02:39:08;4.03;;;1.70;;
37529;SDS011;23374;52.758;6.872;2023-07-30T02:41:29;6.37;;;1.77;;
37529;SDS011;23374;52.758;6.872;2023-07-30T02:43:49;7.87;;;1.57;;
37529;SDS011;23374;52.758;6.872;2023-07-30T02:46:10;4.03;;;1.53;;
37529;SDS011;23374;52.758;6.872;2023-07-30T02:48:30;5.97;;;2.07;;
37529;SDS011;23374;52.758;6.872;2023-07-30T02:50:50;3.67;;;1.70;;
37529;SDS011;23374;52.758;6.872;2023-07-30T02:53:10;13.97;;;2.07;;
37529;SDS011;23374;52.758;6.872;2023-07-30T02:55:31;4.80;;;1.87;;
37529;SDS011;23374;52.758;6.872;2023-07-30T02:57:51;11.17;;;2.47;;
37529;SDS011;23374;52.758;6.872;2023-07-30T03:00:12;3.53;;;1.77;;
37529;SDS011;23374;52.758;6.872;2023-07-30T03:02:33;6.27;;;2.27;;
37529;SDS011;23374;52.758;6.872;2023-07-30T03:04:53;5.07;;;1.80;;
37529;SDS011;23374;52.758;6.872;2023-07-30T03:07:14;6.27;;;1.77;;
37529;SDS011;23374;52.758;6.872;2023-07-30T03:09:34;4.07;;;1.80;;
37529;SDS011;23374;52.758;6.872;2023-07-30T03:11:55;5.87;;;1.90;;
37529;SDS011;23374;52.758;6.872;2023-07-30T03:14:15;9.03;;;2.10;;
37529;SDS011;23374;52.758;6.872;2023-07-30T03:16:36;10.67;;;2.23;;
37529;SDS011;23374;52.758;6.872;2023-07-30T03:18:56;11.00;;;2.83;;
37529;SDS011;23374;52.758;6.872;2023-07-30T03:21:18;5.03;;;1.97;;
37529;SDS011;23374;52.758;6.872;2023-07-30T03:23:38;6.90;;;2.00;;
37529;SDS011;23374;52.758;6.872;2023-07-30T03:25:59;6.70;;;2.30;;
37529;SDS011;23374;52.758;6.872;2023-07-30T03:28:20;8.97;;;2.63;;
37529;SDS011;23374;52.758;6.872;2023-07-30T03:30:40;6.77;;;2.50;;
37529;SDS011;23374;52.758;6.872;2023-07-30T03:33:01;4.87;;;2.20;;
37529;SDS011;23374;52.758;6.872;2023-07-30T03:35:21;3.30;;;2.03;;
37529;SDS011;23374;52.758;6.872;2023-07-30T03:37:41;5.43;;;2.23;;
37529;SDS011;23374;52.758;6.872;2023-07-30T03:40:02;5.37;;;2.10;;
37529;SDS011;23374;52.758;6.872;2023-07-30T03:42:23;6.23;;;2.60;;
37529;SDS011;23374;52.758;6.872;2023-07-30T03:44:43;12.10;;;2.17;;
37529;SDS011;23374;52.758;6.872;2023-07-30T03:47:01;5.20;;;2.10;;
37529;SDS011;23374;52.758;6.872;2023-07-30T03:49:21;5.77;;;2.37;;
37529;SDS011;23374;52.758;6.872;2023-07-30T03:51:42;9.33;;;2.37;;
37529;SDS011;23374;52.758;6.872;2023-07-30T03:54:03;5.67;;;2.63;;
37529;SDS011;23374;52.758;6.872;2023-07-30T03:56:24;7.53;;;2.37;;
37529;SDS011;23374;52.758;6.872;2023-07-30T03:58:45;7.67;;;2.80;;
37529;SDS011;23374;52.758;6.872;2023-07-30T04:01:05;8.33;;;2.57;;
37529;SDS011;23374;52.758;6.872;2023-07-30T04:03:29;6.60;;;2.10;;
37529;SDS011;23374;52.758;6.872;2023-07-30T04:05:49;9.53;;;2.27;;
37529;SDS011;23374;52.758;6.872;2023-07-30T04:08:10;13.50;;;2.97;;
37529;SDS011;23374;52.758;6.872;2023-07-30T04:10:30;7.47;;;2.50;;
37529;SDS011;23374;52.758;6.872;2023-07-30T04:12:50;8.83;;;2.30;;
37529;SDS011;23374;52.758;6.872;2023-07-30T04:15:11;9.17;;;2.80;;
37529;SDS011;23374;52.758;6.872;2023-07-30T04:17:31;6.20;;;2.50;;
37529;SDS011;23374;52.758;6.872;2023-07-30T04:19:52;9.27;;;2.50;;
37529;SDS011;23374;52.758;6.872;2023-07-30T04:22:12;10.13;;;2.73;;
37529;SDS011;23374;52.758;6.872;2023-07-30T04:24:34;10.17;;;2.50;;
37529;SDS011;23374;52.758;6.872;2023-07-30T04:26:54;9.33;;;2.80;;
37529;SDS011;23374;52.758;6.872;2023-07-30T04:29:14;6.50;;;2.37;;
37529;SDS011;23374;52.758;6.872;2023-07-30T04:31:36;6.83;;;2.57;;
37529;SDS011;23374;52.758;6.872;2023-07-30T04:33:57;8.50;;;2.40;;
37529;SDS011;23374;52.758;6.872;2023-07-30T04:36:17;8.83;;;2.87;;
37529;SDS011;23374;52.758;6.872;2023-07-30T04:38:37;9.90;;;2.77;;
37529;SDS011;23374;52.758;6.872;2023-07-30T04:40:58;6.73;;;2.70;;
37529;SDS011;23374;52.758;6.872;2023-07-30T04:43:19;4.23;;;2.10;;
37529;SDS011;23374;52.758;6.872;2023-07-30T04:45:39;6.50;;;2.30;;
37529;SDS011;23374;52.758;6.872;2023-07-30T04:48:00;4.47;;;2.50;;
37529;SDS011;23374;52.758;6.872;2023-07-30T04:50:20;5.10;;;2.63;;
37529;SDS011;23374;52.758;6.872;2023-07-30T04:52:41;8.87;;;3.37;;
37529;SDS011;23374;52.758;6.872;2023-07-30T04:55:01;5.27;;;2.70;;
37529;SDS011;23374;52.758;6.872;2023-07-30T04:57:22;11.77;;;2.83;;
37529;SDS011;23374;52.758;6.872;2023-07-30T04:59:42;5.93;;;2.83;;
37529;SDS011;23374;52.758;6.872;2023-07-30T05:02:03;6.07;;;2.47;;
37529;SDS011;23374;52.758;6.872;2023-07-30T05:04:23;6.03;;;2.40;;
37529;SDS011;23374;52.758;6.872;2023-07-30T05:06:44;9.37;;;2.50;;
37529;SDS011;23374;52.758;6.872;2023-07-30T05:09:04;7.40;;;2.57;;
37529;SDS011;23374;52.758;6.872;2023-07-30T05:11:25;8.40;;;2.53;;
37529;SDS011;23374;52.758;6.872;2023-07-30T05:13:46;8.63;;;2.63;;
37529;SDS011;23374;52.758;6.872;2023-07-30T05:16:06;9.40;;;2.63;;
37529;SDS011;23374;52.758;6.872;2023-07-30T05:18:27;7.80;;;2.50;;
37529;SDS011;23374;52.758;6.872;2023-07-30T05:20:48;5.93;;;2.57;;
37529;SDS011;23374;52.758;6.872;2023-07-30T05:23:09;4.47;;;2.40;;
37529;SDS011;23374;52.758;6.872;2023-07-30T05:25:29;13.73;;;3.37;;
37529;SDS011;23374;52.758;6.872;2023-07-30T05:27:50;9.53;;;2.63;;
37529;SDS011;23374;52.758;6.872;2023-07-30T05:30:11;8.17;;;2.50;;
37529;SDS011;23374;52.758;6.872;2023-07-30T05:32:32;5.63;;;2.43;;
37529;SDS011;23374;52.758;6.872;2023-07-30T05:34:52;7.70;;;2.70;;
37529;SDS011;23374;52.758;6.872;2023-07-30T05:37:12;10.17;;;2.90;;
37529;SDS011;23374;52.758;6.872;2023-07-30T05:39:33;8.50;;;3.00;;
37529;SDS011;23374;52.758;6.872;2023-07-30T05:41:53;6.07;;;2.53;;
37529;SDS011;23374;52.758;6.872;2023-07-30T05:44:13;8.10;;;2.77;;
37529;SDS011;23374;52.758;6.872;2023-07-30T05:46:34;8.30;;;2.33;;
37529;SDS011;23374;52.758;6.872;2023-07-30T05:48:54;10.53;;;3.17;;
37529;SDS011;23374;52.758;6.872;2023-07-30T05:51:15;7.27;;;2.77;;
37529;SDS011;23374;52.758;6.872;2023-07-30T05:53:35;8.43;;;3.03;;
37529;SDS011;23374;52.758;6.872;2023-07-30T05:55:56;7.57;;;2.50;;
37529;SDS011;23374;52.758;6.872;2023-07-30T05:58:16;9.27;;;2.73;;
37529;SDS011;23374;52.758;6.872;2023-07-30T06:00:37;10.73;;;2.93;;
37529;SDS011;23374;52.758;6.872;2023-07-30T06:02:57;8.37;;;3.30;;
37529;SDS011;23374;52.758;6.872;2023-07-30T06:05:18;8.97;;;3.40;;
37529;SDS011;23374;52.758;6.872;2023-07-30T06:07:38;11.23;;;2.63;;
37529;SDS011;23374;52.758;6.872;2023-07-30T06:09:59;8.23;;;2.17;;
37529;SDS011;23374;52.758;6.872;2023-07-30T06:12:20;12.10;;;3.10;;
37529;SDS011;23374;52.758;6.872;2023-07-30T06:14:40;10.37;;;3.03;;
37529;SDS011;23374;52.758;6.872;2023-07-30T06:17:00;13.07;;;2.93;;
37529;SDS011;23374;52.758;6.872;2023-07-30T06:19:21;11.10;;;3.10;;
37529;SDS011;23374;52.758;6.872;2023-07-30T06:21:42;6.40;;;2.97;;
37529;SDS011;23374;52.758;6.872;2023-07-30T06:24:03;11.43;;;3.27;;
37529;SDS011;23374;52.758;6.872;2023-07-30T06:26:24;9.50;;;3.30;;
37529;SDS011;23374;52.758;6.872;2023-07-30T06:28:44;10.97;;;3.07;;
37529;SDS011;23374;52.758;6.872;2023-07-30T06:31:04;13.73;;;3.17;;
37529;SDS011;23374;52.758;6.872;2023-07-30T06:33:25;10.17;;;3.50;;
37529;SDS011;23374;52.758;6.872;2023-07-30T06:35:45;15.30;;;3.80;;
37529;SDS011;23374;52.758;6.872;2023-07-30T06:38:08;13.37;;;3.20;;
37529;SDS011;23374;52.758;6.872;2023-07-30T06:40:29;17.13;;;3.47;;
37529;SDS011;23374;52.758;6.872;2023-07-30T06:42:49;8.70;;;3.43;;
37529;SDS011;23374;52.758;6.872;2023-07-30T06:45:10;12.57;;;3.27;;
37529;SDS011;23374;52.758;6.872;2023-07-30T06:47:30;13.17;;;3.27;;
37529;SDS011;23374;52.758;6.872;2023-07-30T06:49:51;11.60;;;3.47;;
37529;SDS011;23374;52.758;6.872;2023-07-30T06:52:12;12.90;;;3.33;;
37529;SDS011;23374;52.758;6.872;2023-07-30T06:54:32;10.13;;;2.77;;
37529;SDS011;23374;52.758;6.872;2023-07-30T06:56:53;11.47;;;3.07;;
37529;SDS011;23374;52.758;6.872;2023-07-30T06:59:13;9.67;;;3.13;;
37529;SDS011;23374;52.758;6.872;2023-07-30T07:01:34;9.90;;;3.57;;
37529;SDS011;23374;52.758;6.872;2023-07-30T07:03:54;10.47;;;3.13;;
37529;SDS011;23374;52.758;6.872;2023-07-30T07:06:15;12.30;;;3.40;;
37529;SDS011;23374;52.758;6.872;2023-07-30T07:08:35;9.33;;;3.17;;
37529;SDS011;23374;52.758;6.872;2023-07-30T07:10:55;10.90;;;3.30;;
37529;SDS011;23374;52.758;6.872;2023-07-30T07:13:16;11.27;;;3.10;;
37529;SDS011;23374;52.758;6.872;2023-07-30T07:15:36;8.03;;;3.43;;
37529;SDS011;23374;52.758;6.872;2023-07-30T07:17:57;14.80;;;3.27;;
37529;SDS011;23374;52.758;6.872;2023-07-30T07:20:18;15.57;;;3.90;;
37529;SDS011;23374;52.758;6.872;2023-07-30T07:22:41;11.27;;;3.33;;
37529;SDS011;23374;52.758;6.872;2023-07-30T07:25:02;9.40;;;3.17;;
37529;SDS011;23374;52.758;6.872;2023-07-30T07:27:23;11.37;;;3.57;;
37529;SDS011;23374;52.758;6.872;2023-07-30T07:29:44;14.00;;;3.73;;
37529;SDS011;23374;52.758;6.872;2023-07-30T07:32:05;12.27;;;3.37;;
37529;SDS011;23374;52.758;6.872;2023-07-30T07:34:26;8.70;;;3.27;;
37529;SDS011;23374;52.758;6.872;2023-07-30T07:36:47;12.93;;;3.40;;
37529;SDS011;23374;52.758;6.872;2023-07-30T07:39:07;11.13;;;3.17;;
37529;SDS011;23374;52.758;6.872;2023-07-30T07:41:27;14.10;;;3.73;;
37529;SDS011;23374;52.758;6.872;2023-07-30T07:43:48;12.17;;;3.00;;
37529;SDS011;23374;52.758;6.872;2023-07-30T07:46:08;9.57;;;3.10;;
37529;SDS011;23374;52.758;6.872;2023-07-30T07:48:33;9.97;;;3.57;;
37529;SDS011;23374;52.758;6.872;2023-07-30T07:50:53;9.73;;;3.17;;
37529;SDS011;23374;52.758;6.872;2023-07-30T07:53:14;12.33;;;3.17;;
37529;SDS011;23374;52.758;6.872;2023-07-30T07:55:34;7.23;;;2.87;;
37529;SDS011;23374;52.758;6.872;2023-07-30T07:57:54;8.30;;;3.43;;
37529;SDS011;23374;52.758;6.872;2023-07-30T08:00:15;14.27;;;3.63;;
37529;SDS011;23374;52.758;6.872;2023-07-30T08:02:37;14.00;;;4.00;;
37529;SDS011;23374;52.758;6.872;2023-07-30T08:04:57;14.17;;;3.10;;
37529;SDS011;23374;52.758;6.872;2023-07-30T08:07:18;13.57;;;3.40;;
37529;SDS011;23374;52.758;6.872;2023-07-30T08:09:38;7.13;;;3.00;;
37529;SDS011;23374;52.758;6.872;2023-07-30T08:11:59;10.17;;;2.60;;
37529;SDS011;23374;52.758;6.872;2023-07-30T08:14:20;14.47;;;3.40;;
37529;SDS011;23374;52.758;6.872;2023-07-30T08:16:41;6.90;;;2.77;;
37529;SDS011;23374;52.758;6.872;2023-07-30T08:19:02;10.90;;;2.70;;
37529;SDS011;23374;52.758;6.872;2023-07-30T08:21:22;9.93;;;3.23;;
37529;SDS011;23374;52.758;6.872;2023-07-30T08:23:43;9.50;;;4.03;;
37529;SDS011;23374;52.758;6.872;2023-07-30T08:26:03;10.23;;;3.77;;
37529;SDS011;23374;52.758;6.872;2023-07-30T08:28:23;10.40;;;3.33;;
37529;SDS011;23374;52.758;6.872;2023-07-30T08:30:44;10.83;;;2.90;;
37529;SDS011;23374;52.758;6.872;2023-07-30T08:33:05;7.43;;;3.00;;
37529;SDS011;23374;52.758;6.872;2023-07-30T08:35:25;16.80;;;3.73;;
37529;SDS011;23374;52.758;6.872;2023-07-30T08:37:48;13.57;;;3.10;;
37529;SDS011;23374;52.758;6.872;2023-07-30T08:40:09;9.67;;;2.83;;
37529;SDS011;23374;52.758;6.872;2023-07-30T08:42:30;15.47;;;3.23;;
37529;SDS011;23374;52.758;6.872;2023-07-30T08:44:51;10.30;;;3.30;;
37529;SDS011;23374;52.758;6.872;2023-07-30T08:47:11;10.67;;;3.07;;
37529;SDS011;23374;52.758;6.872;2023-07-30T08:49:31;11.73;;;2.87;;
37529;SDS011;23374;52.758;6.872;2023-07-30T08:51:55;9.07;;;2.50;;
37529;SDS011;23374;52.758;6.872;2023-07-30T08:54:16;11.87;;;3.40;;
37529;SDS011;23374;52.758;6.872;2023-07-30T08:56:38;8.27;;;2.83;;
37529;SDS011;23374;52.758;6.872;2023-07-30T08:58:58;5.70;;;2.67;;
37529;SDS011;23374;52.758;6.872;2023-07-30T09:01:21;7.93;;;2.33;;
37529;SDS011;23374;52.758;6.872;2023-07-30T09:03:45;10.77;;;3.20;;
37529;SDS011;23374;52.758;6.872;2023-07-30T09:06:08;9.30;;;3.00;;
37529;SDS011;23374;52.758;6.872;2023-07-30T09:08:28;11.93;;;3.37;;
37529;SDS011;23374;52.758;6.872;2023-07-30T09:10:49;5.10;;;2.70;;
37529;SDS011;23374;52.758;6.872;2023-07-30T09:13:10;10.30;;;3.10;;
37529;SDS011;23374;52.758;6.872;2023-07-30T09:15:35;4.93;;;3.13;;
37529;SDS011;23374;52.758;6.872;2023-07-30T09:18:00;7.97;;;2.83;;
37529;SDS011;23374;52.758;6.872;2023-07-30T09:20:21;4.10;;;3.07;;
37529;SDS011;23374;52.758;6.872;2023-07-30T09:22:42;10.00;;;3.30;;
37529;SDS011;23374;52.758;6.872;2023-07-30T09:25:03;8.27;;;3.00;;
37529;SDS011;23374;52.758;6.872;2023-07-30T09:27:25;6.03;;;2.87;;
37529;SDS011;23374;52.758;6.872;2023-07-30T09:29:50;5.70;;;3.00;;
37529;SDS011;23374;52.758;6.872;2023-07-30T09:32:12;9.77;;;2.80;;
37529;SDS011;23374;52.758;6.872;2023-07-30T09:34:33;12.37;;;2.93;;
37529;SDS011;23374;52.758;6.872;2023-07-30T09:36:54;7.57;;;2.87;;
37529;SDS011;23374;52.758;6.872;2023-07-30T09:39:16;6.47;;;2.63;;
37529;SDS011;23374;52.758;6.872;2023-07-30T09:41:41;10.57;;;3.47;;
37529;SDS011;23374;52.758;6.872;2023-07-30T09:44:03;6.00;;;3.23;;
37529;SDS011;23374;52.758;6.872;2023-07-30T09:46:29;7.10;;;3.30;;
37529;SDS011;23374;52.758;6.872;2023-07-30T09:48:50;3.07;;;2.20;;
37529;SDS011;23374;52.758;6.872;2023-07-30T09:51:10;6.63;;;2.67;;
37529;SDS011;23374;52.758;6.872;2023-07-30T09:53:32;8.93;;;3.40;;
37529;SDS011;23374;52.758;6.872;2023-07-30T09:55:54;7.13;;;2.50;;
37529;SDS011;23374;52.758;6.872;2023-07-30T09:58:14;7.13;;;3.40;;
37529;SDS011;23374;52.758;6.872;2023-07-30T10:00:35;7.50;;;3.20;;
37529;SDS011;23374;52.758;6.872;2023-07-30T10:02:55;9.07;;;3.10;;
37529;SDS011;23374;52.758;6.872;2023-07-30T10:05:20;10.23;;;3.40;;
37529;SDS011;23374;52.758;6.872;2023-07-30T10:07:53;8.07;;;3.53;;
37529;SDS011;23374;52.758;6.872;2023-07-30T10:10:18;8.07;;;3.40;;
37529;SDS011;23374;52.758;6.872;2023-07-30T10:12:40;9.83;;;2.70;;
37529;SDS011;23374;52.758;6.872;2023-07-30T10:15:04;5.07;;;2.27;;
37529;SDS011;23374;52.758;6.872;2023-07-30T10:17:26;5.57;;;2.40;;
37529;SDS011;23374;52.758;6.872;2023-07-30T10:19:49;11.47;;;2.90;;
37529;SDS011;23374;52.758;6.872;2023-07-30T10:22:28;4.73;;;2.20;;
37529;SDS011;23374;52.758;6.872;2023-07-30T10:24:58;10.43;;;2.60;;
37529;SDS011;23374;52.758;6.872;2023-07-30T10:27:23;5.50;;;2.27;;
37529;SDS011;23374;52.758;6.872;2023-07-30T10:29:45;3.73;;;1.47;;
37529;SDS011;23374;52.758;6.872;2023-07-30T10:32:06;5.07;;;1.60;;
37529;SDS011;23374;52.758;6.872;2023-07-30T10:34:27;2.43;;;1.13;;
37529;SDS011;23374;52.758;6.872;2023-07-30T10:37:03;4.40;;;1.50;;
37529;SDS011;23374;52.758;6.872;2023-07-30T10:39:27;4.60;;;1.57;;
37529;SDS011;23374;52.758;6.872;2023-07-30T10:41:49;2.83;;;1.60;;
37529;SDS011;23374;52.758;6.872;2023-07-30T10:44:27;5.60;;;1.20;;
37529;SDS011;23374;52.758;6.872;2023-07-30T10:46:54;4.07;;;1.57;;
37529;SDS011;23374;52.758;6.872;2023-07-30T10:49:16;2.87;;;1.27;;
37529;SDS011;23374;52.758;6.872;2023-07-30T10:51:36;4.63;;;1.10;;
37529;SDS011;23374;52.758;6.872;2023-07-30T10:53:57;3.23;;;0.90;;
37529;SDS011;23374;52.758;6.872;2023-07-30T10:56:20;3.37;;;1.10;;
37529;SDS011;23374;52.758;6.872;2023-07-30T10:58:49;4.20;;;1.20;;
37529;SDS011;23374;52.758;6.872;2023-07-30T11:01:11;1.57;;;1.00;;
37529;SDS011;23374;52.758;6.872;2023-07-30T11:03:32;3.60;;;1.30;;
37529;SDS011;23374;52.758;6.872;2023-07-30T11:05:54;2.33;;;1.40;;
37529;SDS011;23374;52.758;6.872;2023-07-30T11:08:15;4.20;;;1.30;;
37529;SDS011;23374;52.758;6.872;2023-07-30T11:10:45;6.23;;;1.50;;
37529;SDS011;23374;52.758;6.872;2023-07-30T11:13:09;5.00;;;1.57;;
37529;SDS011;23374;52.758;6.872;2023-07-30T11:15:30;7.57;;;1.60;;
37529;SDS011;23374;52.758;6.872;2023-07-30T11:17:54;3.87;;;1.40;;
37529;SDS011;23374;52.758;6.872;2023-07-30T11:20:27;7.73;;;1.37;;
37529;SDS011;23374;52.758;6.872;2023-07-30T11:22:47;4.97;;;1.50;;
37529;SDS011;23374;52.758;6.872;2023-07-30T11:25:16;3.40;;;1.40;;
37529;SDS011;23374;52.758;6.872;2023-07-30T11:27:55;3.43;;;1.30;;
37529;SDS011;23374;52.758;6.872;2023-07-30T11:30:15;5.50;;;1.37;;
37529;SDS011;23374;52.758;6.872;2023-07-30T11:32:36;4.77;;;1.10;;
37529;SDS011;23374;52.758;6.872;2023-07-30T11:34:57;2.60;;;1.30;;
37529;SDS011;23374;52.758;6.872;2023-07-30T11:37:17;7.93;;;1.80;;
37529;SDS011;23374;52.758;6.872;2023-07-30T11:39:40;5.33;;;1.07;;
37529;SDS011;23374;52.758;6.872;2023-07-30T11:42:00;2.40;;;1.10;;
37529;SDS011;23374;52.758;6.872;2023-07-30T11:44:35;4.83;;;1.30;;
37529;SDS011;23374;52.758;6.872;2023-07-30T11:47:01;3.77;;;1.17;;
37529;SDS011;23374;52.758;6.872;2023-07-30T11:49:23;2.83;;;1.10;;
37529;SDS011;23374;52.758;6.872;2023-07-30T11:51:44;3.30;;;1.20;;
37529;SDS011;23374;52.758;6.872;2023-07-30T11:54:07;4.00;;;1.17;;
37529;SDS011;23374;52.758;6.872;2023-07-30T11:56:37;2.93;;;1.03;;
37529;SDS011;23374;52.758;6.872;2023-07-30T11:59:20;3.03;;;0.67;;
37529;SDS011;23374;52.758;6.872;2023-07-30T12:01:41;2.93;;;0.97;;
37529;SDS011;23374;52.758;6.872;2023-07-30T12:04:04;1.60;;;1.00;;
37529;SDS011;23374;52.758;6.872;2023-07-30T12:06:43;3.50;;;1.13;;
37529;SDS011;23374;52.758;6.872;2023-07-30T12:09:22;1.23;;;0.70;;
37529;SDS011;23374;52.758;6.872;2023-07-30T12:12:01;4.77;;;0.90;;
37529;SDS011;23374;52.758;6.872;2023-07-30T12:14:24;2.90;;;1.00;;
37529;SDS011;23374;52.758;6.872;2023-07-30T12:16:49;3.87;;;0.90;;
37529;SDS011;23374;52.758;6.872;2023-07-30T12:19:09;4.93;;;1.10;;
37529;SDS011;23374;52.758;6.872;2023-07-30T12:21:30;6.83;;;0.97;;
37529;SDS011;23374;52.758;6.872;2023-07-30T12:23:50;2.83;;;0.80;;
37529;SDS011;23374;52.758;6.872;2023-07-30T12:26:11;3.97;;;1.20;;
37529;SDS011;23374;52.758;6.872;2023-07-30T12:28:34;2.13;;;0.73;;
37529;SDS011;23374;52.758;6.872;2023-07-30T12:30:55;6.70;;;1.40;;
37529;SDS011;23374;52.758;6.872;2023-07-30T12:33:15;3.13;;;0.90;;
37529;SDS011;23374;52.758;6.872;2023-07-30T12:35:36;6.43;;;0.90;;
37529;SDS011;23374;52.758;6.872;2023-07-30T12:37:57;7.40;;;1.03;;
37529;SDS011;23374;52.758;6.872;2023-07-30T12:40:18;3.07;;;0.77;;
37529;SDS011;23374;52.758;6.872;2023-07-30T12:42:38;4.73;;;1.17;;
37529;SDS011;23374;52.758;6.872;2023-07-30T12:44:58;3.47;;;0.70;;
37529;SDS011;23374;52.758;6.872;2023-07-30T12:47:19;5.30;;;0.90;;
37529;SDS011;23374;52.758;6.872;2023-07-30T12:49:39;3.60;;;0.90;;
37529;SDS011;23374;52.758;6.872;2023-07-30T12:51:59;4.00;;;1.03;;
37529;SDS011;23374;52.758;6.872;2023-07-30T12:54:19;3.23;;;1.00;;
37529;SDS011;23374;52.758;6.872;2023-07-30T12:56:39;1.87;;;0.90;;
37529;SDS011;23374;52.758;6.872;2023-07-30T12:59:00;5.03;;;1.23;;
37529;SDS011;23374;52.758;6.872;2023-07-30T13:01:20;4.27;;;1.00;;
37529;SDS011;23374;52.758;6.872;2023-07-30T13:03:40;1.90;;;0.60;;
37529;SDS011;23374;52.758;6.872;2023-07-30T13:06:05;5.47;;;0.83;;
37529;SDS011;23374;52.758;6.872;2023-07-30T13:08:25;4.00;;;0.40;;
37529;SDS011;23374;52.758;6.872;2023-07-30T13:10:45;1.90;;;0.73;;
37529;SDS011;23374;52.758;6.872;2023-07-30T13:13:06;2.23;;;0.80;;
37529;SDS011;23374;52.758;6.872;2023-07-30T13:15:27;0.80;;;0.57;;
37529;SDS011;23374;52.758;6.872;2023-07-30T13:17:48;3.53;;;0.77;;
37529;SDS011;23374;52.758;6.872;2023-07-30T13:20:08;4.13;;;0.83;;
37529;SDS011;23374;52.758;6.872;2023-07-30T13:22:29;2.13;;;0.70;;
37529;SDS011;23374;52.758;6.872;2023-07-30T13:24:49;5.27;;;1.10;;
37529;SDS011;23374;52.758;6.872;2023-07-30T13:27:10;5.70;;;1.40;;
37529;SDS011;23374;52.758;6.872;2023-07-30T13:29:30;3.03;;;0.80;;
37529;SDS011;23374;52.758;6.872;2023-07-30T13:31:51;4.60;;;1.00;;
37529;SDS011;23374;52.758;6.872;2023-07-30T13:34:12;1.70;;;0.77;;
37529;SDS011;23374;52.758;6.872;2023-07-30T13:36:32;4.53;;;1.20;;
37529;SDS011;23374;52.758;6.872;2023-07-30T13:38:52;7.13;;;1.23;;
37529;SDS011;23374;52.758;6.872;2023-07-30T13:41:12;2.30;;;0.80;;
37529;SDS011;23374;52.758;6.872;2023-07-30T13:43:33;3.40;;;1.00;;
37529;SDS011;23374;52.758;6.872;2023-07-30T13:45:53;6.03;;;1.13;;
37529;SDS011;23374;52.758;6.872;2023-07-30T13:48:14;6.00;;;1.10;;
37529;SDS011;23374;52.758;6.872;2023-07-30T13:50:35;4.60;;;1.10;;
37529;SDS011;23374;52.758;6.872;2023-07-30T13:52:55;4.27;;;1.10;;
37529;SDS011;23374;52.758;6.872;2023-07-30T13:55:15;4.63;;;1.23;;
37529;SDS011;23374;52.758;6.872;2023-07-30T13:57:36;7.97;;;1.30;;
37529;SDS011;23374;52.758;6.872;2023-07-30T13:59:56;5.37;;;1.03;;
37529;SDS011;23374;52.758;6.872;2023-07-30T14:02:17;2.70;;;1.07;;
37529;SDS011;23374;52.758;6.872;2023-07-30T14:04:37;5.87;;;0.90;;
37529;SDS011;23374;52.758;6.872;2023-07-30T14:06:58;3.73;;;1.17;;
37529;SDS011;23374;52.758;6.872;2023-07-30T14:09:18;3.03;;;1.23;;
37529;SDS011;23374;52.758;6.872;2023-07-30T14:11:39;5.83;;;1.53;;